Time;durP1;ratioP1;P1;durP2;ratioP2;P2;SDS_P1;SDS_P2;PMS_P1;PMS_P2;Temp;Humidity;BMP_temperature;BMP_pressure;BME280_temperature;BME280_humidity;BME280_pressure;Samples;Min_cycle;Max_cycle;Signal;HPM_P1;HPM_P2
2023/01/12 00:00:26;;;;;;;93.00;86.00;;;;;;;0.19;100.00;101669.16;5108731;28;20047;-82
2023/01/12 00:02:53;;;;;;;65.32;59.75;;;;;;;0.19;100.00;101675.22;5109704;28;20056;-82
2023/01/12 00:05:20;;;;;;;64.35;58.78;;;;;;;0.31;100.00;101694.38;5112042;28;20052;-82
2023/01/12 00:07:47;;;;;;;92.70;86.38;;;;;;;0.36;100.00;101700.06;5111610;28;20490;-82
2023/01/12 00:10:15;;;;;;;101.75;94.25;;;;;;;0.41;100.00;101699.72;5111885;28;20052;-82
2023/01/12 00:12:42;;;;;;;103.82;96.55;;;;;;;0.26;100.00;101708.72;5112693;28;20474;-82
2023/01/12 00:15:10;;;;;;;89.53;82.53;;;;;;;0.26;100.00;101722.63;5106520;28;20047;-82
2023/01/12 00:17:36;;;;;;;96.25;88.85;;;;;;;0.25;100.00;101734.03;5107027;28;20047;-82
2023/01/12 00:20:05;;;;;;;86.80;80.00;;;;;;;0.31;100.00;101740.59;5111409;28;20060;-82
2023/01/12 00:22:31;;;;;;;97.95;90.75;;;;;;;0.19;100.00;101742.31;5112130;28;20467;-82
2023/01/12 00:24:58;;;;;;;93.97;86.57;;;;;;;0.43;100.00;101730.03;5112296;28;20485;-82
2023/01/12 00:27:26;;;;;;;95.20;87.97;;;;;;;0.43;100.00;101716.16;5121889;28;20051;-82
2023/01/12 00:29:53;;;;;;;96.95;90.05;;;;;;;0.52;100.00;101706.78;5116810;28;20052;-82
2023/01/12 00:32:20;;;;;;;97.35;90.43;;;;;;;0.28;100.00;101696.38;5112789;28;20048;-82
2023/01/12 00:34:47;;;;;;;88.40;81.72;;;;;;;0.31;100.00;101701.38;5111877;28;20653;-82
2023/01/12 00:37:14;;;;;;;93.55;86.65;;;;;;;0.09;100.00;101683.84;5112130;28;20501;-82
2023/01/12 00:39:41;;;;;;;108.03;100.35;;;;;;;0.23;100.00;101683.66;5111830;28;20101;-82
2023/01/12 00:47:37;;;;;;;68.25;62.22;;;;;;;0.07;100.00;101670.06;5102977;28;20125;-82
2023/01/12 00:50:05;;;;;;;102.22;94.55;;;;;;;0.15;100.00;101673.78;5111225;28;20044;-82
2023/01/12 00:52:31;;;;;;;95.57;88.18;;;;;;;0.18;100.00;101678.78;5111644;28;20048;-82
2023/01/12 00:54:59;;;;;;;95.00;88.03;;;;;;;0.25;100.00;101675.72;5112043;28;20047;-82
2023/01/12 00:57:26;;;;;;;105.25;97.70;;;;;;;0.16;100.00;101669.41;5116384;28;20524;-82
2023/01/12 00:59:56;;;;;;;91.13;84.38;;;;;;;0.30;100.00;101686.63;5112120;28;20112;-82
2023/01/12 01:02:23;;;;;;;90.22;83.70;;;;;;;0.25;100.00;101684.38;5108863;28;20647;-82
2023/01/12 01:04:50;;;;;;;64.80;59.22;;;;;;;0.20;100.00;101694.34;5106319;28;20570;-82
2023/01/12 01:07:17;;;;;;;63.97;58.55;;;;;;;0.17;100.00;101687.56;5097923;28;20410;-82
2023/01/12 01:09:44;;;;;;;66.18;60.95;;;;;;;0.17;100.00;101690.16;5097380;28;20044;-82
2023/01/12 01:12:11;;;;;;;68.85;63.33;;;;;;;0.13;100.00;101688.75;5096908;28;20109;-82
2023/01/12 01:14:38;;;;;;;66.25;60.85;;;;;;;0.14;100.00;101684.34;5097386;28;20478;-82
2023/01/12 01:17:06;;;;;;;76.85;70.78;;;;;;;0.21;100.00;101680.31;5097140;28;20051;-82
2023/01/12 01:19:32;;;;;;;78.88;72.60;;;;;;;0.17;100.00;101666.66;5097736;28;20106;-82
2023/01/12 01:21:59;;;;;;;86.95;80.53;;;;;;;0.21;100.00;101662.88;5097286;28;20048;-82
2023/01/12 01:24:26;;;;;;;81.22;75.13;;;;;;;0.11;100.00;101677.56;5096742;28;20105;-82
2023/01/12 01:26:53;;;;;;;81.72;75.25;;;;;;;0.15;100.00;101660.72;5088816;28;20105;-82
2023/01/12 01:29:20;;;;;;;86.68;80.28;;;;;;;0.19;100.00;101667.38;5086061;28;20048;-82
2023/01/12 01:31:47;;;;;;;79.57;73.72;;;;;;;0.23;100.00;101665.34;5095421;28;20093;-82
2023/01/12 01:34:15;;;;;;;88.78;82.40;;;;;;;0.21;100.00;101659.41;5087951;28;20056;-82
2023/01/12 01:36:42;;;;;;;75.97;70.22;;;;;;;0.18;100.00;101659.63;5096661;28;20040;-82
2023/01/12 01:39:09;;;;;;;79.95;73.82;;;;;;;0.23;100.00;101658.34;5096769;28;20074;-82
2023/01/12 01:41:36;;;;;;;78.22;72.10;;;;;;;0.22;100.00;101651.47;5090473;28;20056;-82
2023/01/12 01:44:05;;;;;;;88.85;82.18;;;;;;;0.20;100.00;101650.75;5085182;28;20040;-82
2023/01/12 01:46:42;;;;;;;82.13;76.43;;;;;;;0.25;100.00;101665.25;5096399;28;20517;-82
2023/01/12 01:49:28;;;;;;;83.78;77.15;;;;;;;0.35;100.00;101661.81;5092450;28;20059;-82
2023/01/12 01:51:59;;;;;;;81.95;75.28;;;;;;;0.14;100.00;101655.59;5093015;28;20119;-82
2023/01/12 01:54:27;;;;;;;96.75;89.55;;;;;;;0.20;100.00;101670.81;5091108;28;20052;-82
2023/01/12 01:56:56;;;;;;;92.18;85.38;;;;;;;0.12;100.00;101655.72;5090908;28;20112;-82
2023/01/12 01:59:26;;;;;;;85.05;79.05;;;;;;;0.29;100.00;101654.44;5105288;28;20044;-82
2023/01/12 02:01:54;;;;;;;64.00;58.67;;;;;;;0.31;100.00;101651.72;5096147;28;20066;-82
2023/01/12 02:04:25;;;;;;;63.45;58.38;;;;;;;0.28;100.00;101641.50;5095686;28;20097;-82
2023/01/12 02:06:53;;;;;;;73.50;67.88;;;;;;;0.11;100.00;101648.00;5096272;28;20131;-82
2023/01/12 02:09:23;;;;;;;76.30;69.32;;;;;;;0.21;100.00;101655.03;5095163;28;20051;-82
2023/01/12 02:17:35;;;;;;;80.85;74.88;;;;;;;0.15;100.00;101675.53;5094711;28;20637;-82
2023/01/12 02:20:26;;;;;;;65.90;60.78;;;;;;;0.20;100.00;101671.66;5095710;28;20048;-82
2023/01/12 02:23:40;;;;;;;70.57;64.25;;;;;;;0.18;100.00;101673.56;5095688;28;20121;-82
2023/01/12 02:26:56;;;;;;;66.03;60.67;;;;;;;0.31;100.00;101667.41;4995130;28;20479;-82
2023/01/12 02:29:54;;;;;;;64.68;59.42;;;;;;;0.38;100.00;101673.81;5004273;28;20116;-82
2023/01/12 02:32:29;;;;;;;67.00;61.58;;;;;;;0.27;100.00;101671.19;5092461;28;20048;-82
2023/01/12 02:35:05;;;;;;;74.38;68.40;;;;;;;0.29;100.00;101674.53;5095707;28;20047;-82
2023/01/12 02:37:37;;;;;;;86.80;80.32;;;;;;;0.27;100.00;101674.63;5095650;28;20044;-82
2023/01/12 02:40:09;;;;;;;75.65;69.45;;;;;;;0.26;100.00;101666.91;5091503;28;20048;-82
2023/01/12 02:42:39;;;;;;;82.30;75.80;;;;;;;0.21;100.00;101664.63;5096752;28;20048;-82
2023/01/12 02:45:17;;;;;;;72.55;66.50;;;;;;;0.18;100.00;101659.63;5095209;28;20048;-82
2023/01/12 02:47:51;;;;;;;82.95;76.30;;;;;;;0.25;100.00;101663.47;5094940;28;20044;-82
2023/01/12 02:50:23;;;;;;;77.38;71.32;;;;;;;0.28;100.00;101659.81;5095254;28;20048;-82
2023/01/12 02:52:55;;;;;;;79.78;73.50;;;;;;;0.20;100.00;101663.81;5095375;28;20052;-82
2023/01/12 02:55:24;;;;;;;71.70;65.70;;;;;;;0.20;100.00;101644.69;5090919;28;20089;-82
2023/01/12 02:57:53;;;;;;;75.43;68.93;;;;;;;0.19;100.00;101649.09;5107458;28;20052;-82
2023/01/12 03:00:19;;;;;;;73.70;67.57;;;;;;;0.07;100.00;101642.16;5094060;28;20040;-82
2023/01/12 03:02:49;;;;;;;70.13;64.22;;;;;;;0.10;100.00;101641.13;5091805;28;20105;-82
2023/01/12 03:05:16;;;;;;;68.93;62.78;;;;;;;0.07;100.00;101646.56;5094656;28;20101;-82
2023/01/12 03:07:48;;;;;;;73.55;66.82;;;;;;;0.20;100.00;101655.13;5094156;28;20508;-82
2023/01/12 03:10:39;;;;;;;81.35;73.32;;;;;;;0.26;100.00;101657.28;5086847;28;20117;-82
2023/01/12 03:13:10;;;;;;;72.03;64.95;;;;;;;0.29;100.00;101662.28;5094735;28;20125;-82
2023/01/12 03:15:40;;;;;;;77.88;71.22;;;;;;;0.22;100.00;101656.69;5082395;28;20114;-81
2023/01/12 03:18:14;;;;;;;79.22;72.93;;;;;;;0.16;100.00;101661.56;5094689;28;20058;-82
2023/01/12 03:20:47;;;;;;;75.68;69.47;;;;;;;0.15;100.00;101665.94;5097490;28;20051;-82
2023/01/12 03:26:35;;;;;;;84.00;77.70;;;;;;;0.12;100.00;101665.31;5136671;27;20950;-82
2023/01/12 03:29:09;;;;;;;78.72;72.75;;;;;;;0.00;100.00;101661.88;5109875;28;20047;-82
2023/01/12 03:31:36;;;;;;;68.97;63.42;;;;;;;0.01;100.00;101653.06;5098914;28;20102;-82
2023/01/12 03:34:03;;;;;;;74.35;67.70;;;;;;;-0.08;100.00;101651.97;5104204;28;20451;-82
2023/01/12 03:36:43;;;;;;;69.72;64.07;;;;;;;0.04;100.00;101644.19;5102746;28;20102;-82
2023/01/12 03:39:17;;;;;;;75.88;69.72;;;;;;;0.04;100.00;101633.75;5106730;28;20118;-82
2023/01/12 03:41:56;;;;;;;66.07;60.72;;;;;;;0.08;100.00;101651.66;5101713;28;20132;-82
2023/01/12 03:44:31;;;;;;;63.15;58.03;;;;;;;0.06;100.00;101652.72;5097568;28;20121;-82
2023/01/12 03:47:01;;;;;;;60.35;55.58;;;;;;;0.05;100.00;101651.06;5100678;28;20048;-82
2023/01/12 03:49:34;;;;;;;64.85;59.80;;;;;;;0.01;100.00;101666.13;5103709;28;20127;-82
2023/01/12 03:52:03;;;;;;;74.15;66.63;;;;;;;0.06;100.00;101663.16;5102060;28;20047;-82
2023/01/12 03:54:32;;;;;;;64.22;59.28;;;;;;;0.08;100.00;101646.44;5102297;28;20101;-82
2023/01/12 03:57:02;;;;;;;66.18;60.95;;;;;;;0.16;100.00;101651.94;5103027;28;20120;-82
2023/01/12 03:59:28;;;;;;;68.82;63.63;;;;;;;0.17;100.00;101661.41;5105789;28;20056;-82
2023/01/12 04:01:55;;;;;;;64.78;59.38;;;;;;;0.01;100.00;101655.69;5103324;28;20048;-81
2023/01/12 04:04:22;;;;;;;63.70;58.60;;;;;;;0.08;100.00;101659.50;5098182;28;20074;-81
2023/01/12 04:06:49;;;;;;;65.00;59.90;;;;;;;-0.02;100.00;101666.38;5103553;28;20074;-82
2023/01/12 04:09:16;;;;;;;68.40;62.88;;;;;;;0.01;100.00;101660.91;5101029;28;20047;-82
2023/01/12 04:14:28;;;;;;;68.05;62.50;;;;;;;-0.01;100.00;101660.19;5105163;28;20051;-82
2023/01/12 04:16:55;;;;;;;71.13;65.72;;;;;;;-0.02;100.00;101651.53;5101160;28;20417;-82
2023/01/12 04:19:21;;;;;;;67.88;62.83;;;;;;;-0.06;100.00;101644.00;5104228;28;20039;-82
2023/01/12 04:24:32;;;;;;;69.57;64.07;;;;;;;-0.05;100.00;101656.97;5098298;28;20062;-82
2023/01/12 04:26:59;;;;;;;87.00;79.00;;;;;;;-0.13;100.00;101656.69;5103335;28;20051;-82
2023/01/12 04:29:25;;;;;;;67.65;61.97;;;;;;;-0.04;100.00;101656.03;5106304;28;20044;-81
2023/01/12 04:31:53;;;;;;;72.25;65.80;;;;;;;0.05;100.00;101672.78;5098840;28;20099;-82
2023/01/12 04:34:20;;;;;;;68.93;63.42;;;;;;;0.02;100.00;101665.19;5104160;28;20402;-82
2023/01/12 04:36:47;;;;;;;75.65;70.05;;;;;;;0.00;100.00;101674.94;5091767;28;20578;-82
2023/01/12 04:39:14;;;;;;;75.35;69.90;;;;;;;-0.06;100.00;101657.94;5086715;28;20063;-82
2023/01/12 04:41:40;;;;;;;83.43;77.78;;;;;;;-0.03;100.00;101660.31;5088580;28;20491;-82
2023/01/12 04:44:07;;;;;;;72.60;67.50;;;;;;;-0.08;100.00;101661.59;5091724;28;20468;-82
2023/01/12 04:46:34;;;;;;;88.15;81.20;;;;;;;-0.11;100.00;101667.06;5087577;28;20106;-82
2023/01/12 04:49:02;;;;;;;90.95;83.93;;;;;;;-0.05;100.00;101656.16;5088257;28;20053;-82
2023/01/12 04:51:29;;;;;;;72.53;67.45;;;;;;;-0.05;100.00;101658.75;5078050;28;20048;-82
2023/01/12 04:53:55;;;;;;;73.45;68.45;;;;;;;-0.03;100.00;101656.84;5087954;28;20105;-82
2023/01/12 04:56:22;;;;;;;85.10;79.18;;;;;;;0.02;100.00;101665.19;5090560;28;20044;-82
2023/01/12 04:58:49;;;;;;;95.65;88.47;;;;;;;-0.01;100.00;101668.03;5094139;28;20483;-82
2023/01/12 05:01:18;;;;;;;95.10;88.00;;;;;;;-0.06;100.00;101664.91;5086406;28;20498;-81
2023/01/12 05:03:45;;;;;;;109.95;100.05;;;;;;;-0.09;100.00;101673.84;5085765;28;20048;-81
2023/01/12 05:06:14;;;;;;;90.57;83.15;;;;;;;-0.09;100.00;101676.44;5093141;28;20040;-82
2023/01/12 05:11:27;;;;;;;87.63;81.07;;;;;;;-0.11;100.00;101675.72;5087492;28;20101;-83
2023/01/12 05:13:54;;;;;;;65.93;60.55;;;;;;;-0.13;100.00;101674.16;5092660;28;20101;-82
2023/01/12 05:16:21;;;;;;;65.07;59.63;;;;;;;-0.09;100.00;101684.28;5087968;28;20052;-82
2023/01/12 05:18:47;;;;;;;61.38;56.65;;;;;;;-0.05;100.00;101690.09;5090152;28;20044;-82
2023/01/12 05:21:17;;;;;;;69.75;64.15;;;;;;;-0.14;100.00;101688.16;5086023;28;20059;-82
2023/01/12 05:23:44;;;;;;;68.70;63.00;;;;;;;-0.14;100.00;101685.56;5087497;28;20592;-82
2023/01/12 05:26:12;;;;;;;66.60;60.83;;;;;;;-0.13;100.00;101682.81;5088207;28;20055;-82
2023/01/12 05:28:39;;;;;;;66.22;60.72;;;;;;;-0.04;100.00;101684.75;5092427;28;20049;-82
2023/01/12 05:31:07;;;;;;;77.90;70.25;;;;;;;0.05;100.00;101679.81;5086605;28;20055;-82
2023/01/12 05:33:34;;;;;;;61.47;56.78;;;;;;;-0.02;100.00;101689.88;5086591;28;20105;-81
2023/01/12 05:36:04;;;;;;;83.57;75.63;;;;;;;-0.04;100.00;101689.97;5085784;28;20059;-81
2023/01/12 05:38:32;;;;;;;84.13;76.53;;;;;;;-0.07;100.00;101684.97;5084987;28;20049;-81
2023/01/12 05:41:00;;;;;;;64.65;59.53;;;;;;;-0.09;100.00;101691.25;5088954;28;20048;-81
2023/01/12 05:46:11;;;;;;;75.65;68.43;;;;;;;-0.18;100.00;101698.00;5084754;28;20044;-81
2023/01/12 05:48:38;;;;;;;73.15;65.55;;;;;;;-0.08;100.00;101699.00;5088681;28;20052;-82
2023/01/12 05:51:06;;;;;;;75.97;68.03;;;;;;;-0.22;100.00;101691.31;5082512;28;20102;-81
2023/01/12 05:53:34;;;;;;;78.82;69.10;;;;;;;-0.19;100.00;101691.09;5084247;28;20044;-81
2023/01/12 05:56:07;;;;;;;98.15;73.80;;;;;;;-0.09;100.00;101707.78;5085410;28;20052;-82
2023/01/12 05:58:34;;;;;;;185.60;102.28;;;;;;;-0.13;100.00;101713.31;5091504;28;20552;-81
2023/01/12 06:01:01;;;;;;;111.93;81.18;;;;;;;-0.05;100.00;101718.84;5084712;28;20052;-81
2023/01/12 06:03:27;;;;;;;74.22;66.68;;;;;;;0.03;100.00;101706.06;5086265;28;20052;-82
2023/01/12 06:05:57;;;;;;;71.57;64.97;;;;;;;-0.03;100.00;101704.72;5090811;28;20048;-81
2023/01/12 06:08:24;;;;;;;98.47;82.28;;;;;;;-0.06;100.00;101707.56;5086853;28;20048;-82
2023/01/12 06:10:52;;;;;;;82.38;73.45;;;;;;;-0.12;100.00;101712.38;5086849;28;20113;-82
2023/01/12 06:16:04;;;;;;;74.63;67.47;;;;;;;-0.22;100.00;101701.78;5080744;28;20090;-81
2023/01/12 06:18:35;;;;;;;72.22;65.35;;;;;;;-0.08;100.00;101698.16;5088143;28;20480;-81
2023/01/12 06:21:02;;;;;;;75.35;68.03;;;;;;;-0.13;100.00;101705.50;5090242;28;20497;-82
2023/01/12 06:23:29;;;;;;;140.15;96.60;;;;;;;-0.16;100.00;101706.53;5083329;28;20098;-82
2023/01/12 06:26:00;;;;;;;129.40;92.70;;;;;;;-0.19;100.00;101703.34;5082571;28;20109;-82
2023/01/12 06:28:27;;;;;;;81.95;73.57;;;;;;;-0.29;100.00;101700.56;5093189;28;20105;-81
2023/01/12 06:30:57;;;;;;;80.60;71.82;;;;;;;-0.20;100.00;101701.69;5086169;28;20117;-82
2023/01/12 06:33:25;;;;;;;103.63;77.03;;;;;;;-0.23;100.00;101705.34;5083820;28;20058;-81
2023/01/12 06:35:52;;;;;;;103.53;86.13;;;;;;;-0.24;100.00;101701.06;5086382;28;20044;-82
2023/01/12 06:38:19;;;;;;;71.95;65.32;;;;;;;-0.22;100.00;101712.22;5079387;28;20044;-81
2023/01/12 06:40:46;;;;;;;88.50;81.20;;;;;;;-0.28;100.00;101703.03;5085339;28;20040;-81
2023/01/12 06:43:14;;;;;;;74.28;66.75;;;;;;;-0.16;100.00;101693.50;5075276;28;20048;-82
2023/01/12 06:45:41;;;;;;;206.57;97.82;;;;;;;-0.20;100.00;101702.50;5084108;28;20049;-81
2023/01/12 06:48:08;;;;;;;241.98;110.43;;;;;;;-0.11;100.00;101711.44;5085639;28;20048;-81
2023/01/12 06:50:35;;;;;;;162.43;94.32;;;;;;;-0.12;100.00;101713.22;5080914;28;20513;-82
2023/01/12 06:53:03;;;;;;;83.28;72.85;;;;;;;0.07;100.00;101719.72;5083847;28;20094;-82
2023/01/12 06:55:30;;;;;;;91.80;76.45;;;;;;;-0.16;100.00;101718.78;5079634;28;20047;-82
2023/01/12 06:58:00;;;;;;;83.80;74.57;;;;;;;0.01;100.00;101713.16;5088780;28;20052;-82
2023/01/12 07:00:29;;;;;;;83.45;74.82;;;;;;;0.05;100.00;101716.38;5085957;28;20097;-82
2023/01/12 07:02:55;;;;;;;83.97;75.25;;;;;;;0.00;100.00;101711.50;5085183;28;20101;-82
2023/01/12 07:05:22;;;;;;;82.20;73.78;;;;;;;0.11;100.00;101723.75;5080600;28;20102;-82
2023/01/12 07:07:49;;;;;;;78.93;71.13;;;;;;;0.15;100.00;101731.28;5088864;28;20044;-81
2023/01/12 07:10:17;;;;;;;83.70;75.28;;;;;;;0.11;100.00;101724.59;5086434;28;20597;-81
2023/01/12 07:12:44;;;;;;;108.30;84.60;;;;;;;0.04;100.00;101726.00;5092886;28;20139;-82
2023/01/12 07:15:11;;;;;;;109.70;84.00;;;;;;;0.05;100.00;101711.97;5088220;28;20040;-82
2023/01/12 07:17:39;;;;;;;119.15;86.05;;;;;;;0.10;100.00;101729.94;5083873;28;20554;-82
2023/01/12 07:20:07;;;;;;;140.77;100.05;;;;;;;0.10;100.00;101735.16;5086362;28;20052;-81
2023/01/12 07:22:34;;;;;;;108.35;81.15;;;;;;;0.14;100.00;101731.38;5081587;28;20048;-81
2023/01/12 07:25:01;;;;;;;119.50;86.25;;;;;;;-0.22;100.00;101745.34;5080815;28;20476;-82
2023/01/12 07:27:28;;;;;;;109.15;88.68;;;;;;;0.02;100.00;101750.56;5078795;28;20622;-82
2023/01/12 07:29:55;;;;;;;115.28;87.32;;;;;;;0.17;100.00;101745.03;5033067;28;20050;-81
2023/01/12 07:32:25;;;;;;;108.28;87.95;;;;;;;0.21;100.00;101746.50;5085738;28;20109;-82
2023/01/12 07:34:53;;;;;;;99.57;88.68;;;;;;;0.10;100.00;101746.44;5085447;28;20143;-82
2023/01/12 07:37:20;;;;;;;99.35;84.18;;;;;;;-0.11;100.00;101751.44;5090666;28;20106;-83
2023/01/12 07:40:01;;;;;;;90.97;81.25;;;;;;;-0.09;100.00;101739.13;5088060;27;20782;-82
2023/01/12 07:42:27;;;;;;;85.85;77.35;;;;;;;0.08;100.00;101739.66;5070470;28;20582;-82
2023/01/12 07:44:53;;;;;;;86.82;78.25;;;;;;;-0.08;100.00;101743.38;5076270;28;20044;-81
2023/01/12 07:47:21;;;;;;;88.50;80.18;;;;;;;-0.24;100.00;101738.44;5075924;28;20047;-82
2023/01/12 07:49:47;;;;;;;82.93;74.97;;;;;;;-0.04;100.00;101744.00;5082426;28;20076;-82
2023/01/12 07:52:14;;;;;;;82.40;74.55;;;;;;;-0.16;100.00;101737.88;5072801;28;20472;-81
2023/01/12 07:54:41;;;;;;;84.85;76.15;;;;;;;-0.07;100.00;101750.28;5070606;28;20098;-82
2023/01/12 07:57:11;;;;;;;100.57;92.68;;;;;;;-0.16;100.00;101750.94;5070087;28;20339;-82
2023/01/12 07:59:38;;;;;;;97.38;89.85;;;;;;;0.21;100.00;101748.25;5064146;28;20051;-82
2023/01/12 08:02:05;;;;;;;94.35;87.45;;;;;;;-0.10;100.00;101762.72;5073035;28;20045;-82
2023/01/12 08:04:32;;;;;;;96.07;88.05;;;;;;;-0.15;100.00;101765.69;5067255;28;20441;-82
2023/01/12 08:06:59;;;;;;;102.85;93.95;;;;;;;-0.27;100.00;101759.56;5073878;28;20145;-82
2023/01/12 08:09:26;;;;;;;98.05;89.72;;;;;;;-0.07;100.00;101767.72;5062464;28;20045;-82
2023/01/12 08:11:53;;;;;;;95.00;87.30;;;;;;;0.20;100.00;101777.94;5061438;28;20495;-81
2023/01/12 08:14:29;;;;;;;90.50;83.50;;;;;;;0.29;100.00;101768.59;5061644;28;20045;-82
2023/01/12 08:17:00;;;;;;;89.28;82.47;;;;;;;0.47;100.00;101771.63;5065205;28;20052;-82
2023/01/12 08:19:35;;;;;;;84.10;77.25;;;;;;;0.40;100.00;101771.25;5069352;28;20044;-81
2023/01/12 08:22:05;;;;;;;89.00;82.15;;;;;;;0.32;100.00;101771.00;5067578;28;20045;-82
2023/01/12 08:24:36;;;;;;;81.95;75.95;;;;;;;0.51;100.00;101775.69;5064540;28;20052;-82
2023/01/12 08:27:07;;;;;;;83.72;77.53;;;;;;;0.45;100.00;101769.13;5064701;28;20060;-81
2023/01/12 08:29:42;;;;;;;83.43;76.95;;;;;;;0.33;100.00;101776.09;5075499;28;20121;-82
2023/01/12 08:32:11;;;;;;;88.75;81.63;;;;;;;0.05;100.00;101779.06;5064232;28;20048;-82
2023/01/12 08:34:44;;;;;;;92.50;84.47;;;;;;;-0.11;100.00;101774.13;5062537;28;20996;-82
2023/01/12 08:37:15;;;;;;;97.25;88.00;;;;;;;0.10;100.00;101782.19;5064474;28;20515;-82
2023/01/12 08:39:42;;;;;;;100.80;90.32;;;;;;;0.13;100.00;101785.41;5066197;28;20049;-82
2023/01/12 08:42:09;;;;;;;100.82;89.95;;;;;;;-0.17;100.00;101772.78;5064211;28;20049;-82
2023/01/12 08:44:37;;;;;;;110.28;98.75;;;;;;;0.22;100.00;101778.69;5065422;28;20476;-82
2023/01/12 08:47:06;;;;;;;111.30;99.57;;;;;;;0.27;100.00;101773.09;5066430;28;20048;-82
2023/01/12 08:49:33;;;;;;;111.50;100.38;;;;;;;0.35;100.00;101782.03;5066357;28;20060;-82
2023/01/12 08:52:00;;;;;;;107.97;96.72;;;;;;;0.23;100.00;101778.56;5052041;28;20102;-82
2023/01/12 08:54:27;;;;;;;100.18;87.45;;;;;;;-0.09;100.00;101780.91;5053061;28;20061;-82
2023/01/12 08:56:53;;;;;;;314.95;163.65;;;;;;;0.05;100.00;101773.84;5053005;28;20049;-82
2023/01/12 08:59:20;;;;;;;119.88;97.70;;;;;;;0.09;100.00;101780.50;5061964;28;20045;-82
2023/01/12 09:01:48;;;;;;;88.30;79.28;;;;;;;0.01;100.00;101773.25;5050834;28;20111;-82
2023/01/12 09:04:15;;;;;;;90.63;81.53;;;;;;;-0.12;100.00;101773.28;5048564;28;20049;-82
2023/01/12 09:06:44;;;;;;;95.25;85.63;;;;;;;0.16;100.00;101779.97;5066917;28;20048;-82
2023/01/12 09:09:13;;;;;;;100.15;89.45;;;;;;;0.46;100.00;101773.41;5053296;28;20040;-82
2023/01/12 09:11:41;;;;;;;102.72;92.22;;;;;;;0.30;100.00;101781.53;5046538;28;20050;-82
2023/01/12 09:14:08;;;;;;;99.20;88.53;;;;;;;0.44;100.00;101777.91;5056319;28;20040;-83
2023/01/12 09:16:35;;;;;;;119.57;106.25;;;;;;;0.18;100.00;101774.59;5048584;28;20037;-82
2023/01/12 09:19:04;;;;;;;104.05;91.70;;;;;;;0.80;100.00;101783.97;5059098;28;20049;-83
2023/01/12 09:21:32;;;;;;;95.88;85.78;;;;;;;0.62;100.00;101775.72;5063804;28;20045;-82
2023/01/12 09:24:01;;;;;;;91.05;81.07;;;;;;;0.65;100.00;101775.47;5053810;28;20484;-82
2023/01/12 09:26:31;;;;;;;97.80;87.30;;;;;;;0.47;100.00;101780.31;5054739;28;20107;-82
2023/01/12 09:29:03;;;;;;;110.28;98.93;;;;;;;0.68;100.00;101780.47;5056481;28;20060;-83
2023/01/12 09:31:32;;;;;;;122.93;110.95;;;;;;;0.59;100.00;101781.19;5064561;28;20095;-83
2023/01/12 09:33:59;;;;;;;116.95;105.10;;;;;;;0.65;100.00;101786.78;5050336;28;20079;-82
2023/01/12 09:36:34;;;;;;;114.60;102.43;;;;;;;0.67;100.00;101784.88;5052990;28;20476;-82
2023/01/12 09:39:01;;;;;;;109.75;98.28;;;;;;;0.74;100.00;101772.16;5061620;28;20420;-82
2023/01/12 09:47:05;;;;;;;99.05;86.57;;;;;;;0.71;100.00;101777.63;5061403;28;20047;-82
2023/01/12 09:49:39;;;;;;;95.40;84.88;;;;;;;0.69;100.00;101769.88;5059595;28;20052;-83
2023/01/12 09:52:13;;;;;;;98.72;87.85;;;;;;;0.68;100.00;101770.03;5057897;28;20052;-82
2023/01/12 09:54:40;;;;;;;98.45;87.95;;;;;;;0.49;100.00;101778.41;5067209;28;20494;-82
2023/01/12 09:57:18;;;;;;;99.75;87.65;;;;;;;0.32;100.00;101768.38;5062229;28;20045;-83
2023/01/12 09:59:55;;;;;;;103.75;91.22;;;;;;;0.38;100.00;101762.69;5047566;28;20102;-82
2023/01/12 10:02:22;;;;;;;112.43;98.85;;;;;;;0.49;100.00;101769.75;5053329;28;20048;-82
2023/01/12 10:04:51;;;;;;;116.47;104.05;;;;;;;0.71;100.00;101761.94;5058000;28;20133;-82
2023/01/12 10:07:19;;;;;;;121.35;108.57;;;;;;;0.66;100.00;101758.84;5050772;28;20044;-82
2023/01/12 10:09:46;;;;;;;130.05;114.07;;;;;;;0.27;100.00;101754.81;5051689;28;20480;-82
2023/01/12 10:12:22;;;;;;;124.13;110.45;;;;;;;0.79;100.00;101758.75;5053285;28;20560;-82
2023/01/12 10:15:08;;;;;;;209.82;141.13;;;;;;;0.85;100.00;101763.53;5058666;28;20059;-82
2023/01/12 10:17:43;;;;;;;153.35;121.32;;;;;;;0.63;100.00;101757.28;5061814;28;20110;-81
2023/01/12 10:20:17;;;;;;;146.07;120.72;;;;;;;0.84;100.00;101757.44;5058656;28;20048;-82
2023/01/12 10:22:49;;;;;;;136.85;115.22;;;;;;;0.98;100.00;101756.41;5053522;28;20045;-83
2023/01/12 10:25:19;;;;;;;;;;;;;;;0.90;100.00;101756.97;5062553;28;20048;-82
2023/01/12 10:27:47;;;;;;;112.18;100.18;;;;;;;0.83;100.00;101754.94;5053041;28;19921;-83
2023/01/12 10:30:17;;;;;;;117.88;105.05;;;;;;;0.88;100.00;101737.97;5058035;28;20049;-83
2023/01/12 10:32:44;;;;;;;114.45;102.38;;;;;;;0.95;100.00;101742.72;5060839;28;20061;-82
2023/01/12 10:35:15;;;;;;;113.15;100.90;;;;;;;0.49;100.00;101730.53;5061108;28;20037;-82
2023/01/12 10:37:47;;;;;;;113.38;95.45;;;;;;;0.90;100.00;101737.81;5052687;28;20044;-82
2023/01/12 10:40:30;;;;;;;106.38;94.50;;;;;;;0.88;100.00;101737.97;5044118;28;20053;-81
2023/01/12 10:43:20;;;;;;;105.50;94.07;;;;;;;0.70;100.00;101739.38;5044509;28;20053;-81
2023/01/12 10:46:05;;;;;;;95.50;85.40;;;;;;;0.65;100.00;101728.41;5049588;28;20051;-82
2023/01/12 10:48:33;;;;;;;93.68;83.75;;;;;;;0.79;100.00;101730.00;5060228;28;20073;-82
2023/01/12 10:51:01;;;;;;;92.55;82.78;;;;;;;0.93;100.00;101731.53;5049041;28;20049;-81
2023/01/12 10:55:52;;;;;;;103.78;92.40;;;;;;;0.81;100.00;101726.28;5084189;27;20405;-83
2023/01/12 10:58:21;;;;;;;107.28;93.10;;;;;;;0.72;100.00;101731.38;5089652;28;20044;-82
2023/01/12 11:00:50;;;;;;;110.15;98.07;;;;;;;0.73;100.00;101722.59;5084332;28;20048;-82
2023/01/12 11:03:31;;;;;;;114.38;101.80;;;;;;;0.68;100.00;101722.94;5081090;28;20048;-82
2023/01/12 11:06:15;;;;;;;120.35;100.63;;;;;;;0.70;100.00;101721.06;5081527;28;20083;-82
2023/01/12 11:08:42;;;;;;;112.78;95.63;;;;;;;0.17;100.00;101720.69;5074976;28;20138;-82
2023/01/12 11:11:22;;;;;;;116.18;99.90;;;;;;;0.24;100.00;101714.06;5081951;28;20517;-82
2023/01/12 11:13:53;;;;;;;119.32;97.85;;;;;;;0.40;100.00;101716.38;5074692;28;20041;-82
2023/01/12 11:16:23;;;;;;;118.13;105.25;;;;;;;0.29;100.00;101711.94;5072173;28;20094;-82
2023/01/12 11:19:10;;;;;;;122.88;110.30;;;;;;;-0.04;100.00;101705.66;5074160;28;20131;-82
2023/01/12 11:21:39;;;;;;;115.70;99.10;;;;;;;0.69;100.00;101714.97;5069758;28;20063;-82
2023/01/12 11:24:12;;;;;;;143.32;111.43;;;;;;;0.06;100.00;101711.06;5074198;28;20410;-82
2023/01/12 11:26:46;;;;;;;150.45;110.53;;;;;;;0.37;100.00;101714.00;5082980;28;20044;-83
2023/01/12 11:29:36;;;;;;;142.48;106.80;;;;;;;0.29;100.00;101714.56;5085775;28;20467;-83
2023/01/12 11:32:10;;;;;;;139.30;109.53;;;;;;;0.48;100.00;101716.59;5078293;28;20052;-82
2023/01/12 11:34:43;;;;;;;129.60;105.10;;;;;;;0.54;100.00;101721.38;5074212;28;20040;-82
2023/01/12 11:37:13;;;;;;;129.43;104.68;;;;;;;0.63;100.00;101719.84;5085970;28;20472;-83
2023/01/12 11:39:42;;;;;;;123.28;102.15;;;;;;;0.32;100.00;101713.50;5082212;28;20562;-83
2023/01/12 11:45:09;;;;;;;137.32;113.20;;;;;;;0.32;100.00;101713.50;5071301;28;20047;-83
2023/01/12 11:47:40;;;;;;;120.43;107.20;;;;;;;0.29;100.00;101696.25;5079595;28;20472;-82
2023/01/12 11:50:14;;;;;;;110.13;98.87;;;;;;;0.64;100.00;101706.66;5076151;28;20131;-83
2023/01/12 11:52:42;;;;;;;104.95;93.97;;;;;;;0.78;100.00;101708.22;5078090;28;20056;-83
2023/01/12 11:58:30;;;;;;;100.88;90.82;;;;;;;0.54;100.00;101710.09;5067995;28;20044;-82